sensor_id;sensor_type;location;lat;lon;timestamp;pressure;altitude;pressure_sealevel;temperature;humidity
65376;BME280;51976;47.332;9.404;2023-03-01T00:00:45;92967.13;;;-2.28;73.45
65376;BME280;51976;47.332;9.404;2023-03-01T00:03:12;92984.22;;;-1.98;72.95
65376;BME280;51976;47.332;9.404;2023-03-01T00:05:46;92967.53;;;-1.98;73.14
65376;BME280;51976;47.332;9.404;2023-03-01T00:08:11;92965.50;;;-1.77;72.21
65376;BME280;51976;47.332;9.404;2023-03-01T00:10:37;92963.06;;;-1.85;72.59
65376;BME280;51976;47.332;9.404;2023-03-01T00:13:02;92960.22;;;-1.77;72.42
65376;BME280;51976;47.332;9.404;2023-03-01T00:15:30;92958.19;;;-1.81;72.49
65376;BME280;51976;47.332;9.404;2023-03-01T00:17:56;92961.78;;;-1.43;71.66
65376;BME280;51976;47.332;9.404;2023-03-01T00:20:22;92964.28;;;-1.81;72.63
65376;BME280;51976;47.332;9.404;2023-03-01T00:22:47;92967.53;;;-1.79;72.89
65376;BME280;51976;47.332;9.404;2023-03-01T00:25:13;92963.88;;;-1.78;72.66
65376;BME280;51976;47.332;9.404;2023-03-01T00:27:38;92963.44;;;-1.55;72.01
65376;BME280;51976;47.332;9.404;2023-03-01T00:30:04;92942.94;;;-1.73;72.24
65376;BME280;51976;47.332;9.404;2023-03-01T00:32:30;92960.00;;;-1.68;72.42
65376;BME280;51976;47.332;9.404;2023-03-01T00:34:55;92933.16;;;-1.65;71.93
65376;BME280;51976;47.332;9.404;2023-03-01T00:37:21;92939.22;;;-1.45;71.44
65376;BME280;51976;47.332;9.404;2023-03-01T00:39:47;92932.56;;;-1.74;72.33
65376;BME280;51976;47.332;9.404;2023-03-01T00:42:13;92958.16;;;-1.55;71.87
65376;BME280;51976;47.332;9.404;2023-03-01T00:44:38;92942.72;;;-1.71;72.33
65376;BME280;51976;47.332;9.404;2023-03-01T00:47:04;92945.13;;;-1.56;71.70
65376;BME280;51976;47.332;9.404;2023-03-01T00:49:29;92947.50;;;-1.35;71.34
65376;BME280;51976;47.332;9.404;2023-03-01T00:51:55;92945.88;;;-1.23;70.63
65376;BME280;51976;47.332;9.404;2023-03-01T00:54:20;92948.44;;;-1.94;72.21
65376;BME280;51976;47.332;9.404;2023-03-01T00:56:45;92948.41;;;-1.67;71.10
65376;BME280;51976;47.332;9.404;2023-03-01T00:59:11;92931.72;;;-1.55;70.70
65376;BME280;51976;47.332;9.404;2023-03-01T01:01:36;92929.81;;;-1.28;69.86
65376;BME280;51976;47.332;9.404;2023-03-01T01:04:09;92930.81;;;-1.29;69.77
65376;BME280;51976;47.332;9.404;2023-03-01T01:06:38;92925.13;;;-1.32;69.70
65376;BME280;51976;47.332;9.404;2023-03-01T01:09:06;92902.06;;;-1.77;70.88
65376;BME280;51976;47.332;9.404;2023-03-01T01:11:32;92915.44;;;-1.52;70.69
65376;BME280;51976;47.332;9.404;2023-03-01T01:13:58;92915.44;;;-1.45;70.49
65376;BME280;51976;47.332;9.404;2023-03-01T01:16:25;92912.97;;;-1.40;70.39
65376;BME280;51976;47.332;9.404;2023-03-01T01:18:51;92902.81;;;-1.43;69.96
65376;BME280;51976;47.332;9.404;2023-03-01T01:21:19;92891.63;;;-1.45;69.96
65376;BME280;51976;47.332;9.404;2023-03-01T01:23:46;92859.88;;;-1.39;69.35
65376;BME280;51976;47.332;9.404;2023-03-01T01:26:15;92888.28;;;-1.21;69.27
65376;BME280;51976;47.332;9.404;2023-03-01T01:28:41;92885.25;;;-1.31;69.47
65376;BME280;51976;47.332;9.404;2023-03-01T01:31:07;92885.13;;;-1.49;69.93
65376;BME280;51976;47.332;9.404;2023-03-01T01:33:32;92892.59;;;-1.33;70.01
65376;BME280;51976;47.332;9.404;2023-03-01T01:35:58;92889.69;;;-1.18;69.50
65376;BME280;51976;47.332;9.404;2023-03-01T01:38:24;92871.09;;;-1.43;69.30
65376;BME280;51976;47.332;9.404;2023-03-01T01:40:51;92890.22;;;-1.48;69.83
65376;BME280;51976;47.332;9.404;2023-03-01T01:43:28;92856.28;;;-1.57;69.74
65376;BME280;51976;47.332;9.404;2023-03-01T01:45:59;92887.38;;;-1.46;69.66
65376;BME280;51976;47.332;9.404;2023-03-01T01:48:41;92883.91;;;-1.47;69.54
65376;BME280;51976;47.332;9.404;2023-03-01T01:51:13;92880.84;;;-1.44;69.21
65376;BME280;51976;47.332;9.404;2023-03-01T01:53:40;92885.81;;;-1.67;70.00
65376;BME280;51976;47.332;9.404;2023-03-01T01:56:08;92876.03;;;-1.66;69.88
65376;BME280;51976;47.332;9.404;2023-03-01T01:58:37;92873.78;;;-1.63;69.58
65376;BME280;51976;47.332;9.404;2023-03-01T02:01:04;92852.09;;;-1.85;69.91
65376;BME280;51976;47.332;9.404;2023-03-01T02:03:31;92876.44;;;-1.69;69.89
65376;BME280;51976;47.332;9.404;2023-03-01T02:06:34;92876.25;;;-1.68;70.03
65376;BME280;51976;47.332;9.404;2023-03-01T02:09:06;92869.25;;;-1.49;68.87
65376;BME280;51976;47.332;9.404;2023-03-01T02:11:33;92853.75;;;-2.10;70.31
65376;BME280;51976;47.332;9.404;2023-03-01T02:13:59;92819.47;;;-2.36;70.76
65376;BME280;51976;47.332;9.404;2023-03-01T02:16:26;92854.09;;;-1.74;70.03
65376;BME280;51976;47.332;9.404;2023-03-01T02:18:52;92861.41;;;-1.69;69.62
65376;BME280;51976;47.332;9.404;2023-03-01T02:21:38;92864.72;;;-1.93;69.83
65376;BME280;51976;47.332;9.404;2023-03-01T02:24:23;92857.38;;;-1.91;69.35
65376;BME280;51976;47.332;9.404;2023-03-01T02:26:54;92844.56;;;-1.81;69.40
65376;BME280;51976;47.332;9.404;2023-03-01T02:29:24;92851.16;;;-2.23;70.06
65376;BME280;51976;47.332;9.404;2023-03-01T02:31:52;92853.34;;;-1.94;69.74
65376;BME280;51976;47.332;9.404;2023-03-01T02:34:23;92844.97;;;-1.91;69.65
65376;BME280;51976;47.332;9.404;2023-03-01T02:37:09;92849.00;;;-1.68;69.03
65376;BME280;51976;47.332;9.404;2023-03-01T02:39:40;92844.50;;;-1.61;68.90
65376;BME280;51976;47.332;9.404;2023-03-01T02:42:12;92847.38;;;-1.69;69.36
65376;BME280;51976;47.332;9.404;2023-03-01T02:44:39;92848.59;;;-1.65;69.16
65376;BME280;51976;47.332;9.404;2023-03-01T02:47:05;92841.09;;;-1.75;68.87
65376;BME280;51976;47.332;9.404;2023-03-01T02:49:33;92833.78;;;-1.73;69.09
65376;BME280;51976;47.332;9.404;2023-03-01T02:52:34;92836.44;;;-1.35;68.50
65376;BME280;51976;47.332;9.404;2023-03-01T02:55:09;92826.97;;;-1.49;68.63
65376;BME280;51976;47.332;9.404;2023-03-01T02:57:38;92828.47;;;-1.73;69.76
65376;BME280;51976;47.332;9.404;2023-03-01T03:00:07;92833.81;;;-1.35;68.97
65376;BME280;51976;47.332;9.404;2023-03-01T03:02:33;92820.66;;;-1.48;68.73
65376;BME280;51976;47.332;9.404;2023-03-01T03:05:10;92801.28;;;-1.87;69.64
65376;BME280;51976;47.332;9.404;2023-03-01T03:07:37;92824.00;;;-1.73;69.99
65376;BME280;51976;47.332;9.404;2023-03-01T03:10:04;92826.81;;;-1.61;69.17
65376;BME280;51976;47.332;9.404;2023-03-01T03:12:30;92821.78;;;-1.82;69.85
65376;BME280;51976;47.332;9.404;2023-03-01T03:14:55;92831.34;;;-1.81;69.84
65376;BME280;51976;47.332;9.404;2023-03-01T03:17:21;92815.41;;;-1.61;69.47
65376;BME280;51976;47.332;9.404;2023-03-01T03:19:46;92801.19;;;-1.60;68.88
65376;BME280;51976;47.332;9.404;2023-03-01T03:22:12;92809.53;;;-1.63;69.05
65376;BME280;51976;47.332;9.404;2023-03-01T03:24:38;92803.28;;;-1.82;69.11
65376;BME280;51976;47.332;9.404;2023-03-01T03:27:04;92818.56;;;-1.91;69.58
65376;BME280;51976;47.332;9.404;2023-03-01T03:29:30;92817.59;;;-2.03;69.78
65376;BME280;51976;47.332;9.404;2023-03-01T03:31:55;92808.03;;;-2.04;69.83
65376;BME280;51976;47.332;9.404;2023-03-01T03:34:21;92806.16;;;-1.84;69.27
65376;BME280;51976;47.332;9.404;2023-03-01T03:36:46;92809.47;;;-1.50;68.82
65376;BME280;51976;47.332;9.404;2023-03-01T03:39:12;92805.53;;;-1.79;69.37
65376;BME280;51976;47.332;9.404;2023-03-01T03:41:37;92762.19;;;-2.36;69.62
65376;BME280;51976;47.332;9.404;2023-03-01T03:44:02;92810.94;;;-2.32;70.30
65376;BME280;51976;47.332;9.404;2023-03-01T03:46:28;92794.50;;;-2.34;70.15
65376;BME280;51976;47.332;9.404;2023-03-01T03:48:53;92825.97;;;-2.26;70.29
65376;BME280;51976;47.332;9.404;2023-03-01T03:51:19;92823.09;;;-2.11;69.84
65376;BME280;51976;47.332;9.404;2023-03-01T03:53:45;92802.22;;;-2.32;69.88
65376;BME280;51976;47.332;9.404;2023-03-01T03:56:14;92796.94;;;-2.32;69.97
65376;BME280;51976;47.332;9.404;2023-03-01T03:58:39;92802.97;;;-2.12;69.54
65376;BME280;51976;47.332;9.404;2023-03-01T04:01:05;92813.53;;;-2.19;69.79
65376;BME280;51976;47.332;9.404;2023-03-01T04:03:32;92807.28;;;-2.44;70.42
65376;BME280;51976;47.332;9.404;2023-03-01T04:05:58;92809.31;;;-2.40;70.19
65376;BME280;51976;47.332;9.404;2023-03-01T04:08:24;92821.69;;;-2.33;70.48
65376;BME280;51976;47.332;9.404;2023-03-01T04:10:52;92820.47;;;-2.31;71.06
65376;BME280;51976;47.332;9.404;2023-03-01T04:13:20;92810.94;;;-2.39;71.11
65376;BME280;51976;47.332;9.404;2023-03-01T04:15:49;92796.53;;;-2.36;70.57
65376;BME280;51976;47.332;9.404;2023-03-01T04:18:16;92773.78;;;-2.30;70.12
65376;BME280;51976;47.332;9.404;2023-03-01T04:20:43;92813.53;;;-1.99;69.86
65376;BME280;51976;47.332;9.404;2023-03-01T04:23:12;92810.28;;;-2.14;70.18
65376;BME280;51976;47.332;9.404;2023-03-01T04:25:48;92815.47;;;-1.75;69.81
65376;BME280;51976;47.332;9.404;2023-03-01T04:28:25;92800.47;;;-1.87;69.83
65376;BME280;51976;47.332;9.404;2023-03-01T04:30:52;92813.88;;;-1.89;70.62
65376;BME280;51976;47.332;9.404;2023-03-01T04:33:18;92809.81;;;-1.91;70.16
65376;BME280;51976;47.332;9.404;2023-03-01T04:35:44;92796.84;;;-1.93;70.00
65376;BME280;51976;47.332;9.404;2023-03-01T04:38:10;92796.06;;;-2.07;70.56
65376;BME280;51976;47.332;9.404;2023-03-01T04:40:36;92783.06;;;-2.08;70.62
65376;BME280;51976;47.332;9.404;2023-03-01T04:43:02;92807.03;;;-2.16;71.22
65376;BME280;51976;47.332;9.404;2023-03-01T04:45:28;92809.06;;;-2.18;71.39
65376;BME280;51976;47.332;9.404;2023-03-01T04:47:54;92798.91;;;-2.08;70.57
65376;BME280;51976;47.332;9.404;2023-03-01T04:50:20;92797.69;;;-2.12;70.44
65376;BME280;51976;47.332;9.404;2023-03-01T04:52:47;92797.41;;;-1.78;69.96
65376;BME280;51976;47.332;9.404;2023-03-01T04:55:12;92781.47;;;-2.22;70.75
65376;BME280;51976;47.332;9.404;2023-03-01T04:57:39;92794.78;;;-1.91;70.60
65376;BME280;51976;47.332;9.404;2023-03-01T05:00:06;92784.69;;;-2.07;70.37
65376;BME280;51976;47.332;9.404;2023-03-01T05:02:49;92790.78;;;-2.13;70.34
65376;BME280;51976;47.332;9.404;2023-03-01T05:05:19;92786.28;;;-1.93;69.85
65376;BME280;51976;47.332;9.404;2023-03-01T05:07:45;92787.91;;;-1.98;69.47
65376;BME280;51976;47.332;9.404;2023-03-01T05:10:10;92756.72;;;-2.34;69.99
65376;BME280;51976;47.332;9.404;2023-03-01T05:12:35;92794.22;;;-1.93;69.79
65376;BME280;51976;47.332;9.404;2023-03-01T05:15:03;92787.91;;;-1.92;69.66
65376;BME280;51976;47.332;9.404;2023-03-01T05:17:32;92761.91;;;-2.01;69.51
65376;BME280;51976;47.332;9.404;2023-03-01T05:19:58;92770.66;;;-2.08;69.70
65376;BME280;51976;47.332;9.404;2023-03-01T05:22:25;92776.47;;;-1.86;69.77
65376;BME280;51976;47.332;9.404;2023-03-01T05:24:50;92777.38;;;-1.60;68.78
65376;BME280;51976;47.332;9.404;2023-03-01T05:27:16;92761.59;;;-1.67;68.73
65376;BME280;51976;47.332;9.404;2023-03-01T05:29:41;92745.94;;;-1.68;68.47
65376;BME280;51976;47.332;9.404;2023-03-01T05:32:07;92734.75;;;-1.71;68.62
65376;BME280;51976;47.332;9.404;2023-03-01T05:34:35;92771.94;;;-1.65;69.05
65376;BME280;51976;47.332;9.404;2023-03-01T05:37:01;92756.44;;;-2.00;69.58
65376;BME280;51976;47.332;9.404;2023-03-01T05:39:28;92770.47;;;-2.06;69.86
65376;BME280;51976;47.332;9.404;2023-03-01T05:41:58;92771.59;;;-1.89;69.50
65376;BME280;51976;47.332;9.404;2023-03-01T05:44:24;92751.28;;;-1.88;69.26
65376;BME280;51976;47.332;9.404;2023-03-01T05:46:50;92760.19;;;-1.76;69.64
65376;BME280;51976;47.332;9.404;2023-03-01T05:49:16;92759.94;;;-2.19;70.71
65376;BME280;51976;47.332;9.404;2023-03-01T05:51:43;92761.13;;;-2.15;70.75
65376;BME280;51976;47.332;9.404;2023-03-01T05:54:12;92754.00;;;-2.08;70.40
65376;BME280;51976;47.332;9.404;2023-03-01T05:56:37;92744.53;;;-2.35;70.08
65376;BME280;51976;47.332;9.404;2023-03-01T05:59:03;92734.44;;;-2.52;70.16
65376;BME280;51976;47.332;9.404;2023-03-01T06:01:30;92757.91;;;-2.24;69.73
65376;BME280;51976;47.332;9.404;2023-03-01T06:03:56;92754.81;;;-2.01;69.60
65376;BME280;51976;47.332;9.404;2023-03-01T06:06:22;92751.16;;;-1.55;68.47
65376;BME280;51976;47.332;9.404;2023-03-01T06:08:47;92751.53;;;-1.52;68.24
65376;BME280;51976;47.332;9.404;2023-03-01T06:11:13;92753.56;;;-1.98;69.47
65376;BME280;51976;47.332;9.404;2023-03-01T06:13:38;92748.75;;;-2.15;69.56
65376;BME280;51976;47.332;9.404;2023-03-01T06:16:05;92747.16;;;-2.22;69.48
65376;BME280;51976;47.332;9.404;2023-03-01T06:18:31;92736.00;;;-2.24;69.61
65376;BME280;51976;47.332;9.404;2023-03-01T06:20:57;92710.81;;;-2.27;69.21
65376;BME280;51976;47.332;9.404;2023-03-01T06:23:23;92721.22;;;-2.52;69.82
65376;BME280;51976;47.332;9.404;2023-03-01T06:25:49;92737.66;;;-2.50;69.82
65376;BME280;51976;47.332;9.404;2023-03-01T06:28:14;92757.78;;;-1.91;68.94
65376;BME280;51976;47.332;9.404;2023-03-01T06:30:40;92756.25;;;-2.18;69.93
65376;BME280;51976;47.332;9.404;2023-03-01T06:33:05;92733.94;;;-2.22;69.63
65376;BME280;51976;47.332;9.404;2023-03-01T06:35:31;92740.88;;;-2.28;69.90
65376;BME280;51976;47.332;9.404;2023-03-01T06:37:58;92727.69;;;-2.41;69.69
65376;BME280;51976;47.332;9.404;2023-03-01T06:40:24;92756.53;;;-2.40;70.40
65376;BME280;51976;47.332;9.404;2023-03-01T06:42:50;92747.19;;;-2.42;71.03
65376;BME280;51976;47.332;9.404;2023-03-01T06:45:19;92736.34;;;-2.14;70.19
65376;BME280;51976;47.332;9.404;2023-03-01T06:47:46;92741.69;;;-2.41;70.20
65376;BME280;51976;47.332;9.404;2023-03-01T06:50:12;92752.66;;;-2.30;70.15
65376;BME280;51976;47.332;9.404;2023-03-01T06:52:37;92729.44;;;-2.15;69.82
65376;BME280;51976;47.332;9.404;2023-03-01T06:55:03;92754.63;;;-2.13;69.54
65376;BME280;51976;47.332;9.404;2023-03-01T06:57:29;92748.78;;;-2.28;70.52
65376;BME280;51976;47.332;9.404;2023-03-01T06:59:54;92735.75;;;-2.16;70.26
65376;BME280;51976;47.332;9.404;2023-03-01T07:02:20;92759.50;;;-2.10;70.51
65376;BME280;51976;47.332;9.404;2023-03-01T07:04:45;92762.03;;;-2.48;71.51
65376;BME280;51976;47.332;9.404;2023-03-01T07:07:11;92740.53;;;-2.51;71.70
65376;BME280;51976;47.332;9.404;2023-03-01T07:09:36;92767.28;;;-2.28;71.56
65376;BME280;51976;47.332;9.404;2023-03-01T07:12:02;92750.63;;;-2.28;71.06
65376;BME280;51976;47.332;9.404;2023-03-01T07:14:28;92747.97;;;-2.28;71.05
65376;BME280;51976;47.332;9.404;2023-03-01T07:16:53;92761.28;;;-1.97;70.44
65376;BME280;51976;47.332;9.404;2023-03-01T07:19:20;92757.03;;;-2.05;70.09
65376;BME280;51976;47.332;9.404;2023-03-01T07:21:45;92731.50;;;-2.24;70.71
65376;BME280;51976;47.332;9.404;2023-03-01T07:24:11;92743.91;;;-2.24;70.62
65376;BME280;51976;47.332;9.404;2023-03-01T07:26:37;92749.00;;;-2.36;71.02
65376;BME280;51976;47.332;9.404;2023-03-01T07:29:04;92710.44;;;-2.44;70.96
65376;BME280;51976;47.332;9.404;2023-03-01T07:31:30;92758.34;;;-2.27;70.91
65376;BME280;51976;47.332;9.404;2023-03-01T07:33:55;92757.72;;;-2.29;70.73
65376;BME280;51976;47.332;9.404;2023-03-01T07:36:24;92758.13;;;-2.25;70.87
65376;BME280;51976;47.332;9.404;2023-03-01T07:38:50;92745.53;;;-2.23;70.74
65376;BME280;51976;47.332;9.404;2023-03-01T07:41:15;92741.06;;;-2.29;70.52
65376;BME280;51976;47.332;9.404;2023-03-01T07:43:41;92743.91;;;-2.31;70.70
65376;BME280;51976;47.332;9.404;2023-03-01T07:46:06;92734.09;;;-2.04;70.17
65376;BME280;51976;47.332;9.404;2023-03-01T07:48:32;92735.81;;;-2.36;70.51
65376;BME280;51976;47.332;9.404;2023-03-01T07:50:59;92750.22;;;-2.32;70.95
65376;BME280;51976;47.332;9.404;2023-03-01T07:53:26;92722.38;;;-2.21;70.16
65376;BME280;51976;47.332;9.404;2023-03-01T07:56:05;92746.38;;;-2.36;70.85
65376;BME280;51976;47.332;9.404;2023-03-01T07:58:37;92750.59;;;-2.22;70.25
65376;BME280;51976;47.332;9.404;2023-03-01T08:01:04;92739.78;;;-2.07;69.89
65376;BME280;51976;47.332;9.404;2023-03-01T08:03:30;92738.63;;;-1.66;69.03
65376;BME280;51976;47.332;9.404;2023-03-01T08:05:58;92726.50;;;-1.87;69.05
65376;BME280;51976;47.332;9.404;2023-03-01T08:08:24;92726.34;;;-1.99;68.75
65376;BME280;51976;47.332;9.404;2023-03-01T08:10:49;92718.63;;;-1.94;69.13
65376;BME280;51976;47.332;9.404;2023-03-01T08:13:15;92732.84;;;-1.95;68.91
65376;BME280;51976;47.332;9.404;2023-03-01T08:15:40;92747.19;;;-1.78;68.89
65376;BME280;51976;47.332;9.404;2023-03-01T08:18:08;92744.25;;;-2.01;69.58
65376;BME280;51976;47.332;9.404;2023-03-01T08:20:33;92730.38;;;-1.52;68.78
65376;BME280;51976;47.332;9.404;2023-03-01T08:22:59;92741.50;;;-1.81;69.72
65376;BME280;51976;47.332;9.404;2023-03-01T08:25:24;92728.81;;;-2.04;69.54
65376;BME280;51976;47.332;9.404;2023-03-01T08:27:50;92719.63;;;-1.95;69.52
65376;BME280;51976;47.332;9.404;2023-03-01T08:30:15;92733.75;;;-1.69;68.84
65376;BME280;51976;47.332;9.404;2023-03-01T08:32:40;92746.63;;;-1.48;68.22
65376;BME280;51976;47.332;9.404;2023-03-01T08:35:06;92744.75;;;-1.79;69.54
65376;BME280;51976;47.332;9.404;2023-03-01T08:37:32;92717.78;;;-1.50;68.64
65376;BME280;51976;47.332;9.404;2023-03-01T08:39:58;92726.75;;;-1.57;68.45
65376;BME280;51976;47.332;9.404;2023-03-01T08:42:23;92723.59;;;-1.73;68.79
65376;BME280;51976;47.332;9.404;2023-03-01T08:44:49;92734.66;;;-1.51;68.67
65376;BME280;51976;47.332;9.404;2023-03-01T08:47:14;92707.31;;;-1.69;68.63
65376;BME280;51976;47.332;9.404;2023-03-01T08:49:39;92731.75;;;-1.43;68.74
65376;BME280;51976;47.332;9.404;2023-03-01T08:52:05;92714.09;;;-1.49;68.14
65376;BME280;51976;47.332;9.404;2023-03-01T08:54:30;92711.91;;;-1.96;69.20
65376;BME280;51976;47.332;9.404;2023-03-01T08:56:55;92703.53;;;-1.87;68.91
65376;BME280;51976;47.332;9.404;2023-03-01T08:59:21;92696.50;;;-2.06;69.36
65376;BME280;51976;47.332;9.404;2023-03-01T09:01:46;92724.44;;;-1.79;68.85
65376;BME280;51976;47.332;9.404;2023-03-01T09:04:12;92711.53;;;-2.00;69.59
65376;BME280;51976;47.332;9.404;2023-03-01T09:06:39;92694.16;;;-1.83;68.93
65376;BME280;51976;47.332;9.404;2023-03-01T09:09:05;92710.00;;;-1.45;68.02
65376;BME280;51976;47.332;9.404;2023-03-01T09:11:31;92717.50;;;-1.73;68.89
65376;BME280;51976;47.332;9.404;2023-03-01T09:13:57;92713.13;;;-1.54;68.40
65376;BME280;51976;47.332;9.404;2023-03-01T09:16:23;92711.03;;;-1.46;68.27
65376;BME280;51976;47.332;9.404;2023-03-01T09:18:50;92716.13;;;-1.44;68.36
65376;BME280;51976;47.332;9.404;2023-03-01T09:21:17;92704.63;;;-1.31;67.78
65376;BME280;51976;47.332;9.404;2023-03-01T09:23:45;92715.56;;;-1.21;67.46
65376;BME280;51976;47.332;9.404;2023-03-01T09:26:16;92706.97;;;-1.48;68.04
65376;BME280;51976;47.332;9.404;2023-03-01T09:28:44;92701.34;;;-1.58;68.00
65376;BME280;51976;47.332;9.404;2023-03-01T09:31:11;92693.34;;;-1.45;67.81
65376;BME280;51976;47.332;9.404;2023-03-01T09:33:40;92675.94;;;-1.59;68.43
65376;BME280;51976;47.332;9.404;2023-03-01T09:36:10;92679.63;;;-1.36;67.77
65376;BME280;51976;47.332;9.404;2023-03-01T09:38:36;92693.63;;;-1.04;67.17
65376;BME280;51976;47.332;9.404;2023-03-01T09:41:02;92683.47;;;-1.07;67.08
65376;BME280;51976;47.332;9.404;2023-03-01T09:43:48;92701.06;;;-0.87;66.94
65376;BME280;51976;47.332;9.404;2023-03-01T09:46:20;92690.34;;;-0.74;66.39
65376;BME280;51976;47.332;9.404;2023-03-01T09:48:59;92680.31;;;-0.90;66.49
65376;BME280;51976;47.332;9.404;2023-03-01T09:51:31;92685.88;;;-0.98;66.66
65376;BME280;51976;47.332;9.404;2023-03-01T09:53:57;92685.59;;;-0.90;66.79
65376;BME280;51976;47.332;9.404;2023-03-01T09:56:34;92671.78;;;-1.17;66.97
65376;BME280;51976;47.332;9.404;2023-03-01T09:59:18;92673.38;;;-1.10;67.19
65376;BME280;51976;47.332;9.404;2023-03-01T10:02:23;92671.19;;;-0.94;66.58
65376;BME280;51976;47.332;9.404;2023-03-01T10:04:52;92672.06;;;-0.57;65.84
65376;BME280;51976;47.332;9.404;2023-03-01T10:07:43;92683.59;;;-0.52;65.77
65376;BME280;51976;47.332;9.404;2023-03-01T10:10:27;92690.94;;;-0.54;66.36
65376;BME280;51976;47.332;9.404;2023-03-01T10:12:55;92683.34;;;-1.12;67.31
65376;BME280;51976;47.332;9.404;2023-03-01T10:15:36;92689.00;;;-0.83;67.11
65376;BME280;51976;47.332;9.404;2023-03-01T10:18:09;92689.59;;;-1.06;66.72
65376;BME280;51976;47.332;9.404;2023-03-01T10:20:46;92695.13;;;-0.83;66.53
65376;BME280;51976;47.332;9.404;2023-03-01T10:23:13;92661.19;;;-0.92;66.97
65376;BME280;51976;47.332;9.404;2023-03-01T10:25:58;92670.16;;;-1.18;66.99
65376;BME280;51976;47.332;9.404;2023-03-01T10:28:53;92678.34;;;-0.77;66.61
65376;BME280;51976;47.332;9.404;2023-03-01T10:31:25;92678.19;;;-0.82;66.78
65376;BME280;51976;47.332;9.404;2023-03-01T10:34:02;92665.63;;;-0.86;66.58
65376;BME280;51976;47.332;9.404;2023-03-01T10:36:32;92655.28;;;-1.13;66.84
65376;BME280;51976;47.332;9.404;2023-03-01T10:38:58;92672.13;;;-0.82;66.45
65376;BME280;51976;47.332;9.404;2023-03-01T10:41:26;92652.06;;;-0.96;66.91
65376;BME280;51976;47.332;9.404;2023-03-01T10:43:54;92674.66;;;-1.19;67.23
65376;BME280;51976;47.332;9.404;2023-03-01T10:46:30;92651.38;;;-0.85;66.49
65376;BME280;51976;47.332;9.404;2023-03-01T10:49:13;92663.66;;;-0.73;66.34
65376;BME280;51976;47.332;9.404;2023-03-01T10:51:41;92668.91;;;-0.48;65.58
65376;BME280;51976;47.332;9.404;2023-03-01T10:54:19;92670.69;;;-0.42;65.42
65376;BME280;51976;47.332;9.404;2023-03-01T10:56:50;92669.47;;;-0.64;66.10
65376;BME280;51976;47.332;9.404;2023-03-01T10:59:37;92651.66;;;-0.75;66.27
65376;BME280;51976;47.332;9.404;2023-03-01T11:02:27;92656.13;;;-0.94;66.66
65376;BME280;51976;47.332;9.404;2023-03-01T11:04:59;92666.63;;;-0.26;65.28
65376;BME280;51976;47.332;9.404;2023-03-01T11:07:25;92664.66;;;-0.30;65.24
65376;BME280;51976;47.332;9.404;2023-03-01T11:09:51;92662.13;;;-0.25;65.01
65376;BME280;51976;47.332;9.404;2023-03-01T11:12:16;92655.88;;;-0.68;65.55
65376;BME280;51976;47.332;9.404;2023-03-01T11:14:53;92655.38;;;-0.58;65.61
65376;BME280;51976;47.332;9.404;2023-03-01T11:17:24;92654.94;;;-0.55;65.66
65376;BME280;51976;47.332;9.404;2023-03-01T11:20:05;92638.75;;;-0.28;65.08
65376;BME280;51976;47.332;9.404;2023-03-01T11:22:32;92646.97;;;-0.18;64.68
65376;BME280;51976;47.332;9.404;2023-03-01T11:25:00;92642.25;;;0.02;64.42
65376;BME280;51976;47.332;9.404;2023-03-01T11:27:31;92629.53;;;-0.08;64.55
65376;BME280;51976;47.332;9.404;2023-03-01T11:30:06;92632.56;;;-0.04;65.12
65376;BME280;51976;47.332;9.404;2023-03-01T11:32:43;92632.66;;;0.01;64.52
65376;BME280;51976;47.332;9.404;2023-03-01T11:35:21;92616.91;;;0.06;64.02
65376;BME280;51976;47.332;9.404;2023-03-01T11:38:18;92629.34;;;0.24;63.74
65376;BME280;51976;47.332;9.404;2023-03-01T11:41:08;92634.44;;;0.07;64.42
65376;BME280;51976;47.332;9.404;2023-03-01T11:43:58;92628.19;;;0.31;63.77
65376;BME280;51976;47.332;9.404;2023-03-01T11:49:46;92607.97;;;0.60;62.72
65376;BME280;51976;47.332;9.404;2023-03-01T11:52:38;92625.53;;;0.31;63.48
65376;BME280;51976;47.332;9.404;2023-03-01T11:55:24;92614.34;;;0.71;62.84
65376;BME280;51976;47.332;9.404;2023-03-01T11:58:37;92604.44;;;0.25;63.94
65376;BME280;51976;47.332;9.404;2023-03-01T12:01:07;92612.78;;;0.10;64.46
65376;BME280;51976;47.332;9.404;2023-03-01T12:06:47;92619.88;;;0.28;64.97
65376;BME280;51976;47.332;9.404;2023-03-01T12:09:38;92623.34;;;0.70;63.03
65376;BME280;51976;47.332;9.404;2023-03-01T12:12:26;92598.34;;;0.78;62.21
65376;BME280;51976;47.332;9.404;2023-03-01T12:15:07;92602.34;;;0.68;62.42
65376;BME280;51976;47.332;9.404;2023-03-01T12:17:46;92604.91;;;0.75;62.24
65376;BME280;51976;47.332;9.404;2023-03-01T12:20:35;92605.13;;;0.74;62.24
65376;BME280;51976;47.332;9.404;2023-03-01T12:23:20;92609.19;;;0.76;62.00
65376;BME280;51976;47.332;9.404;2023-03-01T12:26:10;92606.00;;;0.56;62.25
65376;BME280;51976;47.332;9.404;2023-03-01T12:29:07;92607.16;;;0.60;62.26
65376;BME280;51976;47.332;9.404;2023-03-01T12:32:06;92602.03;;;0.77;62.85
65376;BME280;51976;47.332;9.404;2023-03-01T12:35:08;92599.44;;;0.58;62.27
65376;BME280;51976;47.332;9.404;2023-03-01T12:37:51;92596.03;;;0.81;62.18
65376;BME280;51976;47.332;9.404;2023-03-01T12:40:28;92585.03;;;0.66;61.94
65376;BME280;51976;47.332;9.404;2023-03-01T12:46:03;92581.84;;;0.76;62.13
65376;BME280;51976;47.332;9.404;2023-03-01T12:48:48;92571.00;;;0.77;62.06
65376;BME280;51976;47.332;9.404;2023-03-01T12:51:23;92574.34;;;0.96;61.75
65376;BME280;51976;47.332;9.404;2023-03-01T12:53:51;92557.13;;;0.52;61.75
65376;BME280;51976;47.332;9.404;2023-03-01T12:56:24;92575.59;;;0.70;62.39
65376;BME280;51976;47.332;9.404;2023-03-01T12:59:11;92589.41;;;0.49;62.80
65376;BME280;51976;47.332;9.404;2023-03-01T13:02:05;92580.41;;;0.50;63.07
65376;BME280;51976;47.332;9.404;2023-03-01T13:05:02;92587.13;;;0.52;62.92
65376;BME280;51976;47.332;9.404;2023-03-01T13:07:58;92586.97;;;0.47;62.99
65376;BME280;51976;47.332;9.404;2023-03-01T13:10:34;92574.53;;;0.48;62.86
65376;BME280;51976;47.332;9.404;2023-03-01T13:13:13;92562.41;;;0.40;63.23
65376;BME280;51976;47.332;9.404;2023-03-01T13:15:39;92583.97;;;0.55;62.89
65376;BME280;51976;47.332;9.404;2023-03-01T13:18:28;92567.69;;;0.40;62.92
65376;BME280;51976;47.332;9.404;2023-03-01T13:20:56;92555.50;;;0.51;62.68
65376;BME280;51976;47.332;9.404;2023-03-01T13:23:31;92557.41;;;0.32;63.47
65376;BME280;51976;47.332;9.404;2023-03-01T13:26:07;92581.19;;;0.39;63.64
65376;BME280;51976;47.332;9.404;2023-03-01T13:28:50;92579.56;;;0.26;63.71